createdAt,value
2018-09-15T00:05:32.384Z,100657.12
2018-09-15T00:15:35.614Z,100652.87
2018-09-15T00:25:39.123Z,100651.07
2018-09-15T00:35:42.271Z,100643.70
2018-09-15T00:45:45.684Z,100641.78
2018-09-15T00:55:48.981Z,100641.59
2018-09-15T01:05:52.134Z,100629.28
2018-09-15T01:15:55.233Z,100618.17
2018-09-15T01:25:58.683Z,100623.21
2018-09-15T01:36:01.911Z,100615.84
2018-09-15T01:46:05.193Z,100630.04
2018-09-15T01:56:08.553Z,100642.74
2018-09-15T02:06:11.799Z,100641.15
2018-09-15T02:16:15.257Z,100642.57
2018-09-15T02:26:18.475Z,100655.16
2018-09-15T02:36:21.532Z,100652.41
2018-09-15T02:46:24.837Z,100678.21
2018-09-15T02:56:28.184Z,100669.58
2018-09-15T03:06:31.400Z,100670.63
2018-09-15T03:16:34.493Z,100687.51
2018-09-15T03:26:37.641Z,100696.79
2018-09-15T03:36:40.739Z,100693.37
2018-09-15T03:46:43.925Z,100699.23
2018-09-15T03:56:47.110Z,100708.91
2018-09-15T04:06:50.496Z,100720.23
2018-09-15T04:16:53.477Z,100732.88
2018-09-15T04:26:56.637Z,100742.63
2018-09-15T04:36:59.725Z,100751.59
2018-09-15T04:47:02.724Z,100763.99
2018-09-15T04:57:05.792Z,100761.93
2018-09-15T05:07:08.923Z,100766.83
2018-09-15T05:17:11.921Z,100784.47
2018-09-15T05:27:15.092Z,100788.91
2018-09-15T05:37:18.221Z,100801.48
2018-09-15T05:47:21.339Z,100820.64
2018-09-15T05:57:24.487Z,100824.98
2018-09-15T06:07:27.727Z,100841.48
2018-09-15T06:17:30.784Z,100831.44
2018-09-15T06:27:33.883Z,100846.02
2018-09-15T06:37:37.172Z,100855.16
2018-09-15T06:47:40.219Z,100873.30
2018-09-15T06:57:43.485Z,100886.19
2018-09-15T07:07:46.429Z,100901.17
2018-09-15T07:17:49.750Z,100905.56
2018-09-15T07:27:52.973Z,100926.42
2018-09-15T07:37:56.050Z,100918.28
2018-09-15T07:47:59.207Z,100931.77
2018-09-15T07:58:02.455Z,100948.37
2018-09-15T08:08:05.653Z,100951.98
2018-09-15T08:18:08.709Z,100958.83
2018-09-15T08:28:11.805Z,100965.09
2018-09-15T08:38:14.964Z,100970.89
2018-09-15T08:48:18.251Z,100980.02
2018-09-15T08:58:21.486Z,100979.92
2018-09-15T09:08:24.569Z,100985.23
2018-09-15T09:18:27.917Z,100990.57
2018-09-15T09:28:31.073Z,100986.80
2018-09-15T09:38:34.139Z,100979.00
2018-09-15T09:48:37.700Z,100984.79
2018-09-15T09:58:40.812Z,100981.59
2018-09-15T10:08:44.043Z,100991.52
2018-09-15T10:18:47.256Z,100990.97
2018-09-15T10:28:50.484Z,100990.25
2018-09-15T10:38:53.823Z,100996.10
2018-09-15T10:48:56.925Z,100995.66
2018-09-15T10:59:00.104Z,100987.26
2018-09-15T11:09:04.492Z,100987.36
2018-09-15T11:19:07.512Z,100996.09
2018-09-15T11:29:10.466Z,100993.43
2018-09-15T11:39:13.561Z,101003.81
2018-09-15T11:49:16.537Z,100998.21
2018-09-15T11:59:19.471Z,100989.37
2018-09-15T12:09:22.443Z,100979.48
2018-09-15T12:19:25.390Z,100978.06
2018-09-15T12:29:29.120Z,100989.67
2018-09-15T12:39:32.143Z,100977.05
2018-09-15T12:49:38.048Z,100988.86
2018-09-15T12:59:41.027Z,100994.00
2018-09-15T13:09:44.113Z,101001.25
2018-09-15T13:19:47.086Z,101001.88
2018-09-15T13:29:50.376Z,100993.03
2018-09-15T13:39:53.127Z,100999.84
2018-09-15T13:49:56.097Z,100994.66
2018-09-15T13:59:59.213Z,100994.19
2018-09-15T14:10:07.046Z,100998.75
2018-09-15T14:20:05.549Z,101000.23
2018-09-15T14:30:08.595Z,100994.46
2018-09-15T14:40:11.570Z,101001.27
2018-09-15T14:50:14.570Z,101004.77
2018-09-15T15:00:17.448Z,100999.55
2018-09-15T15:10:20.931Z,101004.97
2018-09-15T15:20:23.895Z,101004.13
2018-09-15T15:30:26.833Z,100996.39
2018-09-15T15:40:29.773Z,100985.95
2018-09-15T15:50:32.793Z,100981.81
2018-09-15T16:00:35.848Z,100988.84
2018-09-15T16:10:38.781Z,101004.20
2018-09-15T16:20:41.737Z,101000.81
2018-09-15T16:30:44.931Z,101009.72
2018-09-15T16:40:47.905Z,101003.48
2018-09-15T16:50:50.942Z,101006.42
2018-09-15T17:00:53.885Z,100999.19
2018-09-15T17:10:56.815Z,101013.45
2018-09-15T17:20:59.808Z,101020.61
2018-09-15T17:31:03.026Z,101030.77
2018-09-15T17:41:05.996Z,101047.88
2018-09-15T17:51:08.975Z,101068.92
2018-09-15T18:01:12.129Z,101063.58
2018-09-15T18:11:15.209Z,101075.89
2018-09-15T18:21:18.178Z,101086.05
2018-09-15T18:31:21.116Z,101093.49
2018-09-15T18:41:24.046Z,101096.59
2018-09-15T18:51:27.004Z,101111.25
2018-09-15T19:01:30.126Z,101108.29
2018-09-15T19:11:33.253Z,101124.45
2018-09-15T19:21:36.193Z,101136.86
2018-09-15T19:31:39.153Z,101139.83
2018-09-15T19:41:42.259Z,101147.72
2018-09-15T19:51:45.201Z,101158.44
2018-09-15T20:01:48.126Z,101156.55
2018-09-15T20:11:51.103Z,101153.62
2018-09-15T20:21:53.334Z,101160.23
2018-09-15T20:31:56.353Z,101172.24
2018-09-15T20:41:59.453Z,101179.69
2018-09-15T20:52:02.395Z,101180.77
2018-09-15T21:02:05.336Z,101187.64
2018-09-15T21:12:08.496Z,101213.25
2018-09-15T21:22:11.630Z,101221.38
2018-09-15T21:32:14.738Z,101235.34
2018-09-15T21:42:17.704Z,101238.39
2018-09-15T21:52:20.804Z,101245.85
2018-09-15T22:02:23.895Z,101248.22
2018-09-15T22:12:26.964Z,101255.08
2018-09-15T22:22:29.388Z,101258.17
2018-09-15T22:32:31.660Z,101272.48
2018-09-15T22:42:33.971Z,101275.64
2018-09-15T22:52:36.499Z,101278.15
2018-09-15T23:02:38.816Z,101287.41
2018-09-15T23:12:41.196Z,101293.22
2018-09-15T23:22:43.744Z,101286.98
2018-09-15T23:32:46.334Z,101289.15
2018-09-15T23:42:49.035Z,101290.36
2018-09-15T23:52:51.577Z,101283.95
